createdAt,value
2019-05-07T00:03:58.625Z,10.13
2019-05-07T00:09:04.966Z,10.37
2019-05-07T00:14:09.890Z,10.47
2019-05-07T00:19:13.850Z,10.70
2019-05-07T00:24:17.738Z,10.17
2019-05-07T00:29:22.513Z,10.13
2019-05-07T00:34:28.747Z,9.90
2019-05-07T00:39:34.687Z,10.03
2019-05-07T00:45:13.154Z,10.07
2019-05-07T00:50:08.191Z,10.60
2019-05-07T00:55:12.583Z,10.50
2019-05-07T01:00:16.941Z,10.90
2019-05-07T01:05:23.078Z,10.93
2019-05-07T01:10:27.561Z,10.40
2019-05-07T01:15:34.562Z,10.15
2019-05-07T01:20:37.498Z,10.67
2019-05-07T01:25:43.083Z,10.67
2019-05-07T01:30:47.563Z,11.17
2019-05-07T01:36:02.471Z,10.27
2019-05-07T01:41:06.835Z,10.63
2019-05-07T01:46:12.284Z,9.87
2019-05-07T01:51:16.959Z,11.17
2019-05-07T01:56:22.954Z,11.00
2019-05-07T02:01:27.357Z,10.23
2019-05-07T02:06:42.934Z,10.70
2019-05-07T02:12:04.067Z,9.97
2019-05-07T02:17:08.027Z,11.10
2019-05-07T02:22:13.452Z,10.90
2019-05-07T02:27:17.834Z,10.93
2019-05-07T02:32:24.022Z,10.77
2019-05-07T02:37:37.645Z,10.87
2019-05-07T02:42:35.714Z,11.43
2019-05-07T02:47:40.219Z,10.70
2019-05-07T02:52:55.834Z,11.05
2019-05-07T02:58:03.226Z,10.83
2019-05-07T03:03:06.077Z,11.70
2019-05-07T03:08:13.329Z,11.70
2019-05-07T03:13:16.939Z,12.37
2019-05-07T03:18:23.278Z,11.10
2019-05-07T03:23:28.667Z,11.50
2019-05-07T03:28:34.308Z,11.60
2019-05-07T03:33:46.542Z,11.83
2019-05-07T03:38:46.451Z,12.00
2019-05-07T03:43:52.675Z,12.60
2019-05-07T03:48:56.689Z,12.77
2019-05-07T03:54:02.953Z,12.53
2019-05-07T03:59:07.329Z,12.33
2019-05-07T04:04:13.210Z,12.37
2019-05-07T04:09:17.938Z,12.73
2019-05-07T04:14:23.214Z,12.90
2019-05-07T04:19:27.656Z,12.90
2019-05-07T04:24:45.047Z,12.97
2019-05-07T04:29:48.929Z,13.60
2019-05-07T04:35:12.794Z,13.20
2019-05-07T04:40:17.135Z,13.20
2019-05-07T04:45:23.148Z,13.27
2019-05-07T04:50:39.250Z,13.37
2019-05-07T04:55:37.872Z,13.60
2019-05-07T05:00:43.096Z,14.23
2019-05-07T05:05:47.401Z,14.20
2019-05-07T05:10:53.756Z,13.00
2019-05-07T05:15:57.577Z,13.47
2019-05-07T05:21:12.557Z,14.73
2019-05-07T05:26:17.204Z,13.63
2019-05-07T05:31:22.313Z,13.07
2019-05-07T05:36:26.353Z,13.37
2019-05-07T05:41:33.815Z,13.07
2019-05-07T05:46:38.762Z,13.67
2019-05-07T05:52:03.165Z,13.27
2019-05-07T05:57:24.006Z,15.83
2019-05-07T06:02:46.190Z,12.70
2019-05-07T06:07:53.089Z,12.47
2019-05-07T06:13:04.588Z,12.77
2019-05-07T06:18:27.120Z,11.63
2019-05-07T06:23:49.580Z,11.43
2019-05-07T06:28:54.202Z,11.13
2019-05-07T06:33:58.748Z,10.37
2019-05-07T06:39:12.595Z,10.90
2019-05-07T06:44:18.595Z,11.33
2019-05-07T06:49:22.887Z,10.73
2019-05-07T06:54:27.178Z,11.73
2019-05-07T06:59:34.801Z,11.53
2019-05-07T07:04:43.831Z,12.17
2019-05-07T07:09:55.939Z,11.10
2019-05-07T07:15:02.573Z,11.43
2019-05-07T07:20:07.124Z,11.53
2019-05-07T07:25:11.962Z,11.20
2019-05-07T07:30:27.987Z,11.63
2019-05-07T07:35:32.244Z,13.63
2019-05-07T07:40:44.698Z,11.90
2019-05-07T07:45:52.481Z,12.93
2019-05-07T07:50:55.647Z,14.80
2019-05-07T07:56:17.664Z,15.40
2019-05-07T08:01:38.907Z,16.83
2019-05-07T08:06:43.654Z,16.50
2019-05-07T08:11:48.195Z,19.23
2019-05-07T08:16:52.880Z,19.83
2019-05-07T08:21:58.323Z,19.97
2019-05-07T08:27:02.666Z,20.97
2019-05-07T08:32:19.081Z,18.37
2019-05-07T08:37:24.548Z,18.37
2019-05-07T08:42:28.895Z,18.10
2019-05-07T08:47:42.411Z,17.73
2019-05-07T08:52:46.249Z,17.13
2019-05-07T08:57:52.468Z,17.00
2019-05-07T09:02:57.168Z,15.97
2019-05-07T09:08:02.297Z,15.50
2019-05-07T09:13:06.890Z,15.23
2019-05-07T09:18:12.430Z,15.77
2019-05-07T09:23:16.833Z,17.00
2019-05-07T09:28:22.258Z,15.97
2019-05-07T09:33:42.160Z,15.77
2019-05-07T09:38:58.426Z,15.80
2019-05-07T09:43:52.254Z,15.97
2019-05-07T09:48:56.483Z,15.27
2019-05-07T09:54:02.531Z,15.27
2019-05-07T09:59:06.416Z,15.70
2019-05-07T10:04:10.917Z,15.53
2019-05-07T10:09:15.568Z,15.70
2019-05-07T10:14:19.568Z,15.60
2019-05-07T10:19:23.522Z,15.97
2019-05-07T10:24:27.666Z,16.93
2019-05-07T10:29:32.414Z,16.67
2019-05-07T10:34:36.931Z,16.27
2019-05-07T10:39:43.071Z,14.83
2019-05-07T10:44:49.902Z,16.40
2019-05-07T10:50:12.506Z,14.53
2019-05-07T10:55:16.459Z,14.63
2019-05-07T11:00:24.417Z,14.57
2019-05-07T11:05:28.982Z,13.80
2019-05-07T11:10:33.222Z,13.00
2019-05-07T11:15:39.777Z,12.97
2019-05-07T11:20:49.878Z,11.67
2019-05-07T11:25:52.504Z,12.17
2019-05-07T11:30:56.450Z,11.10
2019-05-07T11:36:02.100Z,10.30
2019-05-07T11:41:06.623Z,10.97
2019-05-07T11:46:32.585Z,10.40
2019-05-07T11:51:38.331Z,9.10
2019-05-07T11:56:42.702Z,8.37
2019-05-07T12:01:52.739Z,8.77
2019-05-07T12:06:56.879Z,8.27
2019-05-07T12:12:02.414Z,9.17
2019-05-07T12:17:07.075Z,7.27
2019-05-07T12:22:12.102Z,6.33
2019-05-07T12:27:16.035Z,6.93
2019-05-07T12:32:22.161Z,6.60
2019-05-07T12:37:26.220Z,6.93
2019-05-07T12:42:30.078Z,5.93
2019-05-07T12:47:33.958Z,6.63
2019-05-07T12:52:49.084Z,6.67
2019-05-07T12:57:54.129Z,6.33
2019-05-07T13:03:16.511Z,6.80
2019-05-07T13:08:22.985Z,6.27
2019-05-07T13:13:27.649Z,6.50
2019-05-07T13:18:32.111Z,6.07
2019-05-07T13:23:36.963Z,6.50
2019-05-07T13:28:41.946Z,6.43
2019-05-07T13:33:48.684Z,6.67
2019-05-07T13:39:02.461Z,6.23
2019-05-07T13:44:13.644Z,6.50
2019-05-07T13:49:17.929Z,6.50
2019-05-07T13:54:22.221Z,6.23
2019-05-07T13:59:26.866Z,5.50
2019-05-07T14:04:32.633Z,6.40
2019-05-07T14:09:36.546Z,5.47
2019-05-07T14:14:42.578Z,6.00
2019-05-07T14:19:46.571Z,5.63
2019-05-07T14:24:52.710Z,5.30
2019-05-07T14:29:57.995Z,5.73
2019-05-07T14:35:06.656Z,5.40
2019-05-07T14:40:12.940Z,5.50
2019-05-07T14:45:17.101Z,5.90
2019-05-07T14:50:22.608Z,5.30
2019-05-07T14:55:27.168Z,5.15
2019-05-07T15:00:31.107Z,4.80
2019-05-07T15:05:34.967Z,4.80
2019-05-07T15:10:41.854Z,4.40
2019-05-07T15:15:46.410Z,5.13
2019-05-07T15:20:52.499Z,5.23
2019-05-07T15:25:57.423Z,5.00
2019-05-07T15:31:03.786Z,4.37
2019-05-07T15:36:08.175Z,4.60
2019-05-07T15:41:12.532Z,4.83
2019-05-07T15:46:16.505Z,4.90
2019-05-07T15:51:22.436Z,4.80
2019-05-07T15:56:26.287Z,4.60
2019-05-07T16:01:30.231Z,4.40
2019-05-07T16:06:35.792Z,4.27
2019-05-07T16:11:42.434Z,4.63
2019-05-07T16:16:47.853Z,4.53
2019-05-07T16:21:52.100Z,4.70
2019-05-07T16:26:56.276Z,4.13
2019-05-07T16:32:02.277Z,4.40
2019-05-07T16:37:07.571Z,4.90
2019-05-07T16:42:11.616Z,5.23
2019-05-07T16:47:15.740Z,4.90
2019-05-07T16:52:19.655Z,4.73
2019-05-07T16:57:34.275Z,5.00
2019-05-07T17:02:42.818Z,5.20
2019-05-07T17:07:52.149Z,4.63
2019-05-07T17:12:56.102Z,4.77
2019-05-07T17:18:02.551Z,4.70
2019-05-07T17:23:06.697Z,4.97
2019-05-07T17:28:12.615Z,4.40
2019-05-07T17:33:18.023Z,4.47
2019-05-07T17:38:23.106Z,4.00
2019-05-07T17:43:27.922Z,4.17
2019-05-07T17:48:32.982Z,4.77
2019-05-07T17:53:37.848Z,4.40
2019-05-07T17:58:42.693Z,4.13
2019-05-07T18:03:47.044Z,4.00
2019-05-07T18:08:52.013Z,4.10
2019-05-07T18:13:56.738Z,3.50
2019-05-07T18:19:02.129Z,3.70
2019-05-07T18:24:13.715Z,3.90
2019-05-07T18:29:12.882Z,3.70
2019-05-07T18:34:17.350Z,4.00
2019-05-07T18:39:21.971Z,3.90
2019-05-07T18:44:26.745Z,3.37
2019-05-07T18:49:31.195Z,3.93
2019-05-07T18:54:35.405Z,4.00
2019-05-07T18:59:39.600Z,3.70
2019-05-07T19:04:43.578Z,3.20
2019-05-07T19:09:47.940Z,3.50
2019-05-07T19:14:51.916Z,4.17
2019-05-07T19:19:56.111Z,4.70
2019-05-07T19:25:00.061Z,4.03
2019-05-07T19:30:05.014Z,3.93
2019-05-07T19:35:12.247Z,4.37
2019-05-07T19:40:16.473Z,4.73
2019-05-07T19:45:23.947Z,4.75
2019-05-07T19:50:26.742Z,4.73
2019-05-07T19:55:32.983Z,4.90
2019-05-07T20:00:36.941Z,5.00
2019-05-07T20:05:41.937Z,5.65
2019-05-07T20:10:51.952Z,5.30
2019-05-07T20:15:57.742Z,5.23
2019-05-07T20:21:02.749Z,5.63
2019-05-07T20:26:06.751Z,6.00
2019-05-07T20:31:12.166Z,6.00
2019-05-07T20:36:16.652Z,5.80
2019-05-07T20:41:23.326Z,6.10
2019-05-07T20:46:27.827Z,6.37
2019-05-07T20:51:32.639Z,5.80
2019-05-07T20:56:38.677Z,5.65
2019-05-07T21:01:42.886Z,5.90
2019-05-07T21:07:06.582Z,5.27
2019-05-07T21:12:12.635Z,5.93
2019-05-07T21:17:16.706Z,6.03
2019-05-07T21:22:22.623Z,5.83
2019-05-07T21:27:27.119Z,5.57
2019-05-07T21:32:32.499Z,6.03
2019-05-07T21:37:37.213Z,6.27
2019-05-07T21:42:42.551Z,6.30
2019-05-07T21:47:47.021Z,5.90
2019-05-07T21:52:58.933Z,6.27
2019-05-07T21:58:22.484Z,5.93
2019-05-07T22:03:27.337Z,5.90
2019-05-07T22:08:32.562Z,5.57
2019-05-07T22:13:37.351Z,5.73
2019-05-07T22:18:42.664Z,5.97
2019-05-07T22:23:46.901Z,5.40
2019-05-07T22:28:53.829Z,5.30
2019-05-07T22:33:59.465Z,6.07
2019-05-07T22:39:05.304Z,6.50
2019-05-07T22:44:11.984Z,5.90
2019-05-07T22:49:16.537Z,5.27
2019-05-07T22:54:22.550Z,6.17
2019-05-07T22:59:26.807Z,5.70
2019-05-07T23:04:32.528Z,5.50
2019-05-07T23:09:36.964Z,5.23
2019-05-07T23:14:41.121Z,5.60
2019-05-07T23:19:45.641Z,5.43
2019-05-07T23:24:51.879Z,5.43
2019-05-07T23:29:55.544Z,5.60
2019-05-07T23:35:01.818Z,5.37
2019-05-07T23:40:08.319Z,5.90
2019-05-07T23:45:12.964Z,5.77
2019-05-07T23:50:17.505Z,5.33
2019-05-07T23:55:22.848Z,5.47
